Terminal Aerodrome Forecast
Issued by NWS Chicago, IL

Home | Current Version | Previous Version | Graphics & Text | Print | Product List | Glossary On
Versions: 1 2 3 4 5 6 7 8 9 10 11 12 13 14 15 16 17 18 19 20 21 22 23 24 25 26 27 28 29
716
FTUS43 KLOT 182100 AAA
TAFRFD
TAF AMD
KRFD 182100Z 1821/1918 28010KT P6SM FEW040 SCT120
     FM190000 33004KT P6SM VCSH SCT030 OVC080
     FM190500 34003KT P6SM SCT080 BKN250
     FM191300 32005KT P6SM FEW035 SCT250=

USA.gov is the U.S. government's official web portal to all federal, state and local government web resources and services.